Latest Weather Observations for St Kilda Harbour RMYS

IDV60901

Issued at 2:11 pm EST Saturday 4 July 2015 (issued every 10 minutes, with the page automatically refreshed every 10 minutes)

About weather observations | Map of Melbourne area stations | Latest observations for Melbourne area | Other Formats
Station Details ID: 086220 Name: ST KILDA HARBOUR - RMYS Lat: -37.86 Lon: 144.96 Height: 6.4 m
Data from the previous 72 hours. | See also: Recent months for locations in Victoria
Date/Time
EST
Tmp

°C
App
Tmp
°C
Dew
Point
°C
Rel
Hum
%
Delta-T

°C
Wind Press
QNH
hPa
Press
MSL
hPa
Rain
since
9 am
mm
Dir
 
Spd
km/h
Gust
km/h
Spd
kts
Gust
kts
04/02:00pm - - - - - NNE 19 26 10 14 - - -
04/01:30pm - - - - - NNE 22 32 12 17 - - -
04/01:00pm - - - - - NNE 20 30 11 16 - - -
04/12:30pm - - - - - NNE 20 30 11 16 - - -
04/12:00pm - - - - - NNE 19 24 10 13 - - -
04/11:30am - - - - - NNE 19 24 10 13 - - -
04/11:00am - - - - - NNE 17 24 9 13 - - -
04/10:30am - - - - - NNE 17 22 9 12 - - -
04/10:00am - - - - - NNE 13 19 7 10 - - -
04/09:30am - - - - - NNE 13 19 7 10 - - -
04/09:00am - - - - - N 15 26 8 14 - - -
04/08:30am - - - - - NNE 19 26 10 14 - - -
04/08:00am - - - - - NNE 15 20 8 11 - - -
04/07:30am - - - - - N 15 20 8 11 - - -
04/07:00am - - - - - N 13 20 7 11 - - -
04/06:30am - - - - - N 17 26 9 14 - - -
04/06:00am - - - - - N 17 30 9 16 - - -
04/05:30am - - - - - N 17 26 9 14 - - -
04/05:00am - - - - - NNE 13 22 7 12 - - -
04/04:30am - - - - - NNE 11 17 6 9 - - -
04/04:00am - - - - - N 15 20 8 11 - - -
04/03:30am - - - - - N 13 22 7 12 - - -
04/03:00am - - - - - N 19 24 10 13 - - -
04/02:30am - - - - - N 17 20 9 11 - - -
04/02:00am - - - - - NNW 17 20 9 11 - - -
04/01:30am - - - - - NNW 19 22 10 12 - - -
04/01:00am - - - - - NNW 19 24 10 13 - - -
04/12:30am - - - - - NNW 22 28 12 15 - - -
04/12:00am - - - - - NNW 22 28 12 15 - - -
 
Date/Time
EST
Tmp

°C
App
Tmp
°C
Dew
Point
°C
Rel
Hum
%
Delta-T

°C
Wind Press
QNH
hPa
Press
MSL
hPa
Rain
since
9 am
mm
Dir
 
Spd
km/h
Gust
km/h
Spd
kts
Gust
kts
03/11:30pm - - - - - NNW 19 24 10 13 - - -
03/11:00pm - - - - - NNW 19 24 10 13 - - -
03/10:30pm - - - - - NNW 17 20 9 11 - - -
03/10:00pm - - - - - N 15 20 8 11 - - -
03/09:30pm - - - - - NNW 15 19 8 10 - - -
03/09:00pm - - - - - NW 13 15 7 8 - - -
03/08:30pm - - - - - NW 11 13 6 7 - - -
03/08:00pm - - - - - WNW 13 15 7 8 - - -
03/07:30pm - - - - - WNW 13 17 7 9 - - -
03/07:00pm - - - - - WNW 15 19 8 10 - - -
03/06:30pm - - - - - WNW 13 17 7 9 - - -
03/06:00pm - - - - - W 11 15 6 8 - - -
03/05:30pm - - - - - W 17 20 9 11 - - -
03/05:00pm - - - - - W 19 24 10 13 - - -
03/04:30pm - - - - - W 22 28 12 15 - - -
03/04:00pm - - - - - WSW 24 30 13 16 - - -
03/03:30pm - - - - - W 20 24 11 13 - - -
03/03:00pm - - - - - WNW 19 22 10 12 - - -
03/02:30pm - - - - - W 9 17 5 9 - - -
03/02:00pm - - - - - WNW 11 17 6 9 - - -
03/01:30pm - - - - - WNW 15 20 8 11 - - -
03/01:00pm - - - - - S 2 2 1 1 - - -
03/12:30pm - - - - - SW 6 9 3 5 - - -
03/12:00pm - - - - - CALM 0 2 0 1 - - -
03/11:30am - - - - - WNW 7 9 4 5 - - -
03/11:00am - - - - - NW 11 15 6 8 - - -
03/10:30am - - - - - NW 9 13 5 7 - - -
03/10:00am - - - - - N 9 13 5 7 - - -
03/09:30am - - - - - NNW 9 13 5 7 - - -
03/09:00am - - - - - NNW 9 13 5 7 - - -
03/08:30am - - - - - N 7 9 4 5 - - -
03/08:00am - - - - - N 7 9 4 5 - - -
03/07:30am - - - - - NW 7 11 4 6 - - -
03/07:00am - - - - - NNW 7 9 4 5 - - -
03/06:30am - - - - - NW 9 13 5 7 - - -
03/06:00am - - - - - NW 9 13 5 7 - - -
03/05:30am - - - - - WNW 9 13 5 7 - - -
03/05:00am - - - - - WNW 11 15 6 8 - - -
03/04:30am - - - - - NW 9 13 5 7 - - -
03/04:00am - - - - - W 11 15 6 8 - - -
03/03:30am - - - - - WNW 11 17 6 9 - - -
03/03:00am - - - - - NW 11 15 6 8 - - -
03/02:30am - - - - - WNW 9 17 5 9 - - -
03/02:00am - - - - - WSW 17 22 9 12 - - -
03/01:30am - - - - - W 19 24 10 13 - - -
03/01:00am - - - - - WSW 22 26 12 14 - - -
03/12:30am - - - - - W 22 28 12 15 - - -
03/12:00am - - - - - WSW 28 32 15 17 - - -
 
Date/Time
EST
Tmp

°C
App
Tmp
°C
Dew
Point
°C
Rel
Hum
%
Delta-T

°C
Wind Press
QNH
hPa
Press
MSL
hPa
Rain
since
9 am
mm
Dir
 
Spd
km/h
Gust
km/h
Spd
kts
Gust
kts
02/11:30pm - - - - - WSW 28 32 15 17 - - -
02/11:00pm - - - - - WSW 20 28 11 15 - - -
02/10:30pm - - - - - W 17 20 9 11 - - -
02/10:00pm - - - - - WSW 19 24 10 13 - - -
02/09:30pm - - - - - WSW 28 32 15 17 - - -
02/09:00pm - - - - - WSW 26 33 14 18 - - -
02/08:30pm - - - - - WSW 30 33 16 18 - - -
02/08:00pm - - - - - WSW 33 37 18 20 - - -
02/07:30pm - - - - - SW 32 37 17 20 - - -
02/07:00pm - - - - - SW 26 37 14 20 - - -
02/06:30pm - - - - - SW 37 44 20 24 - - -
02/06:00pm - - - - - SSW 33 39 18 21 - - -
02/05:30pm - - - - - SSW 37 44 20 24 - - -
02/05:00pm - - - - - SW 30 37 16 20 - - -
02/04:30pm - - - - - SSW 35 41 19 22 - - -
02/04:00pm - - - - - SW 35 41 19 22 - - -
02/03:30pm - - - - - SW 41 50 22 27 - - -
02/03:00pm - - - - - SSW 39 46 21 25 - - -
02/02:30pm - - - - - S 35 52 19 28 - - -
02/02:00pm - - - - - SSW 46 59 25 32 - - -
02/01:30pm - - - - - SW 41 50 22 27 - - -
02/01:00pm - - - - - SW 46 56 25 30 - - -
02/12:30pm - - - - - SW 41 50 22 27 - - -
02/12:00pm - - - - - SW 54 61 29 33 - - -
02/11:30am - - - - - SW 52 69 28 37 - - -
02/11:29am - - - - - SW 50 69 27 37 - - -
02/11:00am - - - - - WSW 41 52 22 28 - - -
02/10:30am - - - - - WSW 37 43 20 23 - - -
02/10:00am - - - - - SW 52 72 28 39 - - -
02/09:30am - - - - - WSW 50 69 27 37 - - -
02/09:17am - - - - - WSW 39 52 21 28 - - -
02/09:00am - - - - - W 37 46 20 25 - - -
02/08:43am - - - - - W 35 56 19 30 - - -
02/08:30am - - - - - WNW 30 37 16 20 - - -
02/08:00am - - - - - WNW 26 32 14 17 - - -
02/07:30am - - - - - WNW 26 32 14 17 - - -
02/07:00am - - - - - W 33 39 18 21 - - -
02/06:30am - - - - - W 32 39 17 21 - - -
02/06:00am - - - - - WSW 35 46 19 25 - - -
02/05:30am - - - - - W 33 43 18 23 - - -
02/05:00am - - - - - WNW 33 43 18 23 - - -
02/04:30am - - - - - WNW 35 43 19 23 - - -
02/04:00am - - - - - WNW 41 54 22 29 - - -
02/03:41am - - - - - NW 26 43 14 23 - - -
02/03:30am - - - - - NNW 22 33 12 18 - - -
02/03:00am - - - - - NNW 24 32 13 17 - - -
02/02:30am - - - - - NNW 28 35 15 19 - - -
02/02:00am - - - - - NNW 30 39 16 21 - - -
02/01:30am - - - - - NNW 30 41 16 22 - - -
02/01:00am - - - - - NNW 28 37 15 20 - - -
02/12:30am - - - - - NNW 20 28 11 15 - - -
02/12:00am - - - - - N 24 33 13 18 - - -
 
Date/Time
EST
Tmp

°C
App
Tmp
°C
Dew
Point
°C
Rel
Hum
%
Delta-T

°C
Wind Press
QNH
hPa
Press
MSL
hPa
Rain
since
9 am
mm
Dir
 
Spd
km/h
Gust
km/h
Spd
kts
Gust
kts
01/11:30pm - - - - - N 22 30 12 16 - - -
01/11:00pm - - - - - N 24 33 13 18 - - -
01/10:30pm - - - - - N 22 33 12 18 - - -
01/10:00pm - - - - - NNW 22 30 12 16 - - -
01/09:30pm - - - - - NNW 22 32 12 17 - - -
01/09:00pm - - - - - N 26 33 14 18 - - -
01/08:30pm - - - - - N 30 39 16 21 - - -
01/08:00pm - - - - - NNW 28 39 15 21 - - -
01/07:30pm - - - - - NNW 32 39 17 21 - - -
01/07:00pm - - - - - NNW 26 35 14 19 - - -
01/06:30pm - - - - - NNW 28 41 15 22 - - -
01/06:00pm - - - - - NNW 26 35 14 19 - - -
01/05:30pm - - - - - NNW 22 32 12 17 - - -
01/05:00pm - - - - - NNW 20 30 11 16 - - -
01/04:30pm - - - - - NW 17 22 9 12 - - -
01/04:00pm - - - - - NW 22 28 12 15 - - -
01/03:30pm - - - - - NW 24 30 13 16 - - -
01/03:00pm - - - - - NW 26 39 14 21 - - -
01/02:30pm - - - - - WNW 32 43 17 23 - - -

Latest Capital City Observations: Canberra | Sydney | Melbourne | Brisbane | Adelaide | Perth | Hobart | Darwin

Other Formats:

Comma delimited format used in spreadsheet applications
http://www.bom.gov.au/fwo/IDV60901/IDV60901.95864.axf

JavaScript Object Notation format (JSON) in row-major order
http://www.bom.gov.au/fwo/IDV60901/IDV60901.95864.json